Time;durP1;ratioP1;P1;durP2;ratioP2;P2;SDS_P1;SDS_P2;PMS_P1;PMS_P2;Temp;Humidity;BMP_temperature;BMP_pressure;BME280_temperature;BME280_humidity;BME280_pressure;Samples;Min_cycle;Max_cycle;Signal;HPM_P1;HPM_P2
2022/03/27 00:00:15;;;;;;;7.45;5.00;;;9.00;99.90;;;;;;4961169;28;20491;-62
2022/03/27 00:02:41;;;;;;;10.10;5.20;;;8.90;99.90;;;;;;4970170;28;20053;-62
2022/03/27 00:05:11;;;;;;;6.63;4.85;;;8.90;99.90;;;;;;4989271;28;20050;-62
2022/03/27 00:07:37;;;;;;;8.52;6.90;;;8.90;99.90;;;;;;4948977;28;20063;-62
2022/03/27 00:10:04;;;;;;;10.70;6.30;;;8.90;99.90;;;;;;4955863;28;20098;-62
2022/03/27 00:12:29;;;;;;;14.90;7.97;;;8.90;99.90;;;;;;4974265;28;20049;-62
2022/03/27 00:14:55;;;;;;;10.27;7.40;;;8.90;99.90;;;;;;4958947;28;20051;-62
2022/03/27 00:17:20;;;;;;;14.40;8.07;;;8.80;99.90;;;;;;4977812;28;20514;-62
2022/03/27 00:19:46;;;;;;;9.88;8.00;;;8.80;99.90;;;;;;4984572;28;20488;-62
2022/03/27 00:22:12;;;;;;;13.02;8.60;;;8.80;99.90;;;;;;4952439;28;20050;-62
2022/03/27 00:24:37;;;;;;;9.80;8.73;;;8.80;99.90;;;;;;4949976;28;20087;-62
2022/03/27 00:27:03;;;;;;;9.02;8.10;;;8.80;99.90;;;;;;4951285;28;20436;-62
2022/03/27 00:29:29;;;;;;;12.25;9.25;;;8.90;99.90;;;;;;4971134;28;20046;-62
2022/03/27 00:31:54;;;;;;;13.38;9.10;;;8.80;99.90;;;;;;4963651;28;20061;-62
2022/03/27 00:34:21;;;;;;;10.80;8.23;;;8.70;99.90;;;;;;4957172;28;20481;-62
2022/03/27 00:36:48;;;;;;;11.18;8.60;;;8.80;99.90;;;;;;4970406;28;20101;-62
2022/03/27 00:39:13;;;;;;;10.00;7.47;;;8.80;99.90;;;;;;4953988;28;20062;-62
2022/03/27 00:41:39;;;;;;;8.30;7.03;;;8.70;99.90;;;;;;4991945;28;20042;-62
2022/03/27 00:44:05;;;;;;;13.90;6.70;;;8.70;99.90;;;;;;4970745;28;20069;-62
2022/03/27 00:46:31;;;;;;;9.10;6.38;;;8.70;99.90;;;;;;4970827;28;20038;-62
2022/03/27 00:48:57;;;;;;;11.10;6.15;;;8.70;99.90;;;;;;4992619;28;20061;-62
2022/03/27 00:51:22;;;;;;;7.80;6.03;;;8.70;99.90;;;;;;4984034;28;20491;-62
2022/03/27 00:53:48;;;;;;;14.15;6.95;;;8.60;99.90;;;;;;4957769;28;20087;-62
2022/03/27 00:56:14;;;;;;;8.68;6.40;;;8.60;99.90;;;;;;4953139;28;20078;-62
2022/03/27 00:58:39;;;;;;;12.52;7.18;;;8.60;99.90;;;;;;4955005;28;20134;-62
2022/03/27 01:01:18;;;;;;;9.63;6.80;;;8.60;99.90;;;;;;4960649;28;20406;-62
2022/03/27 01:03:43;;;;;;;10.82;6.47;;;8.60;99.90;;;;;;4958014;28;20055;-62
2022/03/27 01:06:28;;;;;;;11.50;5.82;;;8.60;99.90;;;;;;4956499;28;20048;-62
2022/03/27 01:11:39;;;;;;;14.45;6.43;;;8.70;99.90;;;;;;4971042;28;20090;-62
2022/03/27 01:14:04;;;;;;;16.35;6.43;;;8.70;99.90;;;;;;4969785;28;20101;-62
2022/03/27 01:16:39;;;;;;;13.52;6.60;;;8.70;99.90;;;;;;4952439;28;20414;-62
2022/03/27 01:19:06;;;;;;;12.85;7.28;;;8.80;99.90;;;;;;4953466;28;20051;-62
2022/03/27 01:21:38;;;;;;;12.27;7.07;;;8.70;99.90;;;;;;4962721;28;20499;-62
2022/03/27 01:24:04;;;;;;;17.67;7.03;;;8.70;99.90;;;;;;4953530;29;20134;-62
2022/03/27 01:26:29;;;;;;;15.82;8.82;;;8.70;99.90;;;;;;4952152;29;20221;-62
2022/03/27 01:28:55;;;;;;;21.85;8.82;;;8.70;99.90;;;;;;4957570;28;20051;-62
2022/03/27 01:31:22;;;;;;;15.02;7.40;;;8.70;99.90;;;;;;4952166;28;20055;-62
2022/03/27 01:33:48;;;;;;;18.67;8.25;;;8.80;99.90;;;;;;4952669;28;20297;-62
2022/03/27 01:36:22;;;;;;;22.27;7.45;;;8.80;99.90;;;;;;4952569;28;20182;-62
2022/03/27 01:38:49;;;;;;;15.20;8.02;;;8.80;99.90;;;;;;4965398;28;20078;-62
2022/03/27 01:41:15;;;;;;;20.20;7.38;;;8.80;99.90;;;;;;4975419;28;20060;-62
2022/03/27 01:43:40;;;;;;;16.85;7.15;;;8.80;99.90;;;;;;4970135;28;20047;-62
2022/03/27 01:46:07;;;;;;;13.48;6.50;;;8.80;99.90;;;;;;4951573;28;20186;-62
2022/03/27 01:48:33;;;;;;;13.85;6.15;;;8.80;99.90;;;;;;4951974;28;20055;-62
2022/03/27 01:50:59;;;;;;;11.45;5.95;;;8.80;99.90;;;;;;4962767;28;20066;-62
2022/03/27 01:53:25;;;;;;;13.45;5.97;;;8.80;99.90;;;;;;4963625;28;20039;-62
2022/03/27 01:55:51;;;;;;;13.30;5.50;;;8.90;99.90;;;;;;4972126;28;20050;-62
2022/03/27 01:58:17;;;;;;;18.63;5.95;;;8.80;99.90;;;;;;4990379;28;20054;-62
2022/03/27 02:00:43;;;;;;;16.67;5.57;;;8.80;99.90;;;;;;4990717;28;20046;-62
2022/03/27 02:03:10;;;;;;;12.90;5.78;;;8.90;99.90;;;;;;4980980;28;20383;-62
2022/03/27 02:05:35;;;;;;;10.65;4.57;;;8.90;99.90;;;;;;4951738;28;20645;-62
2022/03/27 02:08:01;;;;;;;15.07;6.28;;;8.90;99.90;;;;;;4956989;28;20065;-62
2022/03/27 02:10:26;;;;;;;12.68;5.03;;;8.90;99.90;;;;;;4988504;28;20054;-61
2022/03/27 02:12:52;;;;;;;11.20;5.88;;;8.90;99.90;;;;;;4956105;28;20054;-62
2022/03/27 02:15:18;;;;;;;19.77;6.88;;;8.90;99.90;;;;;;4951409;29;20043;-62
2022/03/27 02:17:43;;;;;;;16.95;5.68;;;8.80;99.90;;;;;;4952268;29;20051;-62
2022/03/27 02:20:10;;;;;;;14.15;5.82;;;8.90;99.90;;;;;;4952400;28;20039;-62
2022/03/27 02:22:35;;;;;;;16.45;5.65;;;8.90;99.90;;;;;;4952108;28;20047;-62
2022/03/27 02:25:02;;;;;;;19.55;6.18;;;8.90;99.90;;;;;;4952290;28;20047;-62
2022/03/27 02:27:27;;;;;;;15.70;6.72;;;8.90;99.90;;;;;;4969650;28;20050;-62
2022/03/27 02:29:53;;;;;;;14.57;6.88;;;8.80;99.90;;;;;;4970787;28;20368;-62
2022/03/27 02:32:19;;;;;;;14.77;6.20;;;8.80;99.90;;;;;;4964998;28;20057;-62
2022/03/27 02:34:45;;;;;;;11.43;4.70;;;8.80;99.90;;;;;;4970551;28;20055;-62
2022/03/27 02:37:12;;;;;;;15.43;6.65;;;8.80;99.90;;;;;;4988544;28;20052;-62
2022/03/27 02:39:39;;;;;;;20.23;6.57;;;8.80;99.90;;;;;;4979864;28;20126;-62
2022/03/27 02:42:05;;;;;;;20.55;6.15;;;8.80;99.90;;;;;;4965848;28;20093;-62
2022/03/27 02:44:31;;;;;;;17.10;6.05;;;8.80;99.90;;;;;;4966036;28;20046;-62
2022/03/27 02:46:56;;;;;;;13.60;5.80;;;8.80;99.90;;;;;;4971010;28;20046;-62
2022/03/27 02:49:22;;;;;;;15.65;6.00;;;8.80;99.90;;;;;;4965287;28;20049;-62
2022/03/27 02:51:47;;;;;;;15.82;5.68;;;8.80;99.90;;;;;;4954828;28;20047;-62
2022/03/27 02:54:13;;;;;;;26.73;6.18;;;8.80;99.90;;;;;;4964330;28;20050;-62
2022/03/27 02:56:39;;;;;;;23.10;7.22;;;8.80;99.90;;;;;;4969833;28;20043;-62
2022/03/27 02:59:05;;;;;;;20.50;6.60;;;8.90;99.90;;;;;;4957873;28;20054;-62
2022/03/27 03:01:32;;;;;;;20.80;6.35;;;8.90;99.90;;;;;;4962006;28;20060;-62
2022/03/27 03:03:58;;;;;;;15.82;5.30;;;8.90;99.90;;;;;;4950779;29;20055;-62
2022/03/27 03:06:26;;;;;;;18.13;6.47;;;8.80;99.90;;;;;;4976704;28;20035;-62
2022/03/27 03:08:52;;;;;;;16.42;6.60;;;8.90;99.90;;;;;;4951197;28;20127;-62
2022/03/27 03:11:20;;;;;;;17.30;4.78;;;8.80;99.90;;;;;;4958423;28;20237;-62
2022/03/27 03:13:47;;;;;;;15.50;6.88;;;8.80;99.90;;;;;;4969203;28;20082;-62
2022/03/27 03:16:14;;;;;;;15.65;5.22;;;8.80;99.90;;;;;;4962501;28;20039;-62
2022/03/27 03:18:42;;;;;;;21.45;6.05;;;8.80;99.90;;;;;;4950110;28;20062;-62
2022/03/27 03:21:07;;;;;;;21.55;5.63;;;8.70;99.90;;;;;;4966441;28;20803;-62
2022/03/27 03:23:33;;;;;;;16.58;4.47;;;8.70;99.90;;;;;;4969901;28;20138;-62
2022/03/27 03:26:00;;;;;;;15.52;4.88;;;8.70;99.90;;;;;;4968641;28;20082;-62
2022/03/27 03:28:26;;;;;;;19.02;4.95;;;8.70;99.90;;;;;;4969684;28;20046;-62
2022/03/27 03:30:51;;;;;;;16.88;4.63;;;8.50;99.90;;;;;;4974941;28;20038;-62
2022/03/27 03:33:18;;;;;;;16.83;4.32;;;8.50;99.90;;;;;;4949598;28;20062;-62
2022/03/27 03:35:44;;;;;;;13.75;4.72;;;8.50;99.90;;;;;;4950643;28;20067;-62
2022/03/27 03:38:09;;;;;;;12.32;4.40;;;8.40;99.90;;;;;;4950059;29;20050;-62
2022/03/27 03:40:35;;;;;;;13.82;4.68;;;8.40;99.90;;;;;;4970833;28;20557;-62
2022/03/27 03:43:01;;;;;;;19.25;4.57;;;8.40;99.90;;;;;;4983723;28;20051;-62
2022/03/27 03:45:26;;;;;;;16.73;4.45;;;8.40;99.90;;;;;;4955240;28;20043;-62
2022/03/27 03:47:52;;;;;;;16.33;5.00;;;8.40;99.90;;;;;;4971191;28;20039;-62
2022/03/27 03:50:17;;;;;;;10.95;4.43;;;8.40;99.90;;;;;;4986525;28;20108;-62
2022/03/27 03:52:43;;;;;;;11.52;4.15;;;8.30;99.90;;;;;;4970992;28;20171;-62
2022/03/27 03:55:08;;;;;;;21.67;4.55;;;8.30;99.90;;;;;;4950000;28;20102;-62
2022/03/27 03:57:34;;;;;;;12.38;4.82;;;8.30;99.90;;;;;;4949992;28;20494;-62
2022/03/27 04:00:00;;;;;;;14.77;4.43;;;8.30;99.90;;;;;;4982936;28;20049;-62
2022/03/27 04:02:25;;;;;;;21.05;4.45;;;8.20;99.90;;;;;;4969806;28;20391;-62
2022/03/27 04:04:51;;;;;;;20.60;4.45;;;8.30;99.90;;;;;;4970800;28;20043;-62
2022/03/27 04:07:16;;;;;;;25.13;5.97;;;8.30;99.90;;;;;;4965841;28;20057;-62
2022/03/27 04:09:42;;;;;;;15.80;4.82;;;8.30;99.90;;;;;;4967077;28;20042;-62
2022/03/27 04:12:08;;;;;;;13.75;4.25;;;8.20;99.90;;;;;;4960204;28;20047;-62
2022/03/27 04:14:36;;;;;;;21.10;4.75;;;8.20;99.90;;;;;;4960238;28;20054;-62
2022/03/27 04:17:02;;;;;;;14.15;4.50;;;8.10;99.90;;;;;;4954747;28;20085;-62
2022/03/27 04:19:29;;;;;;;19.55;5.13;;;8.10;99.90;;;;;;4962267;28;20134;-62
2022/03/27 04:21:55;;;;;;;17.60;4.25;;;8.00;99.90;;;;;;4953905;28;20074;-62
2022/03/27 04:24:20;;;;;;;16.05;4.53;;;8.00;99.90;;;;;;4953909;29;20133;-62
2022/03/27 04:26:46;;;;;;;21.73;5.40;;;8.00;99.90;;;;;;4954617;28;20043;-62
2022/03/27 04:29:12;;;;;;;19.20;4.75;;;7.90;99.90;;;;;;4963053;28;20121;-62
2022/03/27 04:31:39;;;;;;;14.32;4.68;;;7.90;99.90;;;;;;4953630;29;20598;-62
2022/03/27 04:34:05;;;;;;;12.35;4.50;;;7.90;99.90;;;;;;4980513;28;20086;-62
2022/03/27 04:36:30;;;;;;;17.00;4.85;;;7.70;99.90;;;;;;4971543;28;20533;-62
2022/03/27 04:38:56;;;;;;;18.23;5.63;;;7.80;99.90;;;;;;4954096;29;20138;-62
2022/03/27 04:41:21;;;;;;;26.17;5.88;;;7.70;99.90;;;;;;4986721;28;20062;-62
2022/03/27 04:43:48;;;;;;;13.07;4.43;;;7.70;99.90;;;;;;4960056;28;20086;-62
2022/03/27 04:46:15;;;;;;;17.77;5.57;;;7.60;99.90;;;;;;4953102;28;20070;-62
2022/03/27 04:48:41;;;;;;;19.63;6.20;;;7.50;99.90;;;;;;4970235;28;20050;-62
2022/03/27 04:51:07;;;;;;;18.80;5.47;;;7.50;99.90;;;;;;4971493;28;20047;-62
2022/03/27 04:53:32;;;;;;;17.92;4.20;;;7.50;99.90;;;;;;4972314;28;20117;-62
2022/03/27 04:55:58;;;;;;;22.45;6.15;;;7.50;99.90;;;;;;4973590;28;20043;-62
2022/03/27 04:58:24;;;;;;;22.90;5.63;;;7.50;99.90;;;;;;4971060;28;20415;-62
2022/03/27 05:00:49;;;;;;;19.00;5.30;;;7.50;99.90;;;;;;4953789;28;20078;-62
2022/03/27 05:03:15;;;;;;;15.93;4.53;;;7.40;99.90;;;;;;4950629;28;20053;-62
2022/03/27 05:05:41;;;;;;;27.90;6.70;;;7.40;99.90;;;;;;4973799;28;20133;-62
2022/03/27 05:08:07;;;;;;;16.25;4.68;;;7.30;99.90;;;;;;4988334;28;20390;-62
2022/03/27 05:10:33;;;;;;;18.02;4.28;;;7.30;99.90;;;;;;4990462;28;20645;-62
2022/03/27 05:12:58;;;;;;;17.77;5.03;;;7.30;99.90;;;;;;4962361;28;20126;-62
2022/03/27 05:15:24;;;;;;;23.42;5.25;;;7.30;99.90;;;;;;4953526;28;20114;-62
2022/03/27 05:17:56;;;;;;;12.25;3.55;;;7.30;99.90;;;;;;4952146;28;20047;-62
2022/03/27 05:20:23;;;;;;;19.02;5.53;;;7.30;99.90;;;;;;4953281;28;20103;-62
2022/03/27 05:22:49;;;;;;;20.92;5.05;;;7.30;99.90;;;;;;4961317;28;20050;-62
2022/03/27 05:25:16;;;;;;;19.60;5.13;;;7.20;99.90;;;;;;4990927;28;20097;-62
2022/03/27 05:27:52;;;;;;;22.38;6.13;;;7.20;99.90;;;;;;4967369;28;20055;-62
2022/03/27 05:30:21;;;;;;;23.08;5.72;;;7.20;99.90;;;;;;4955000;28;20426;-62
2022/03/27 05:32:48;;;;;;;16.00;5.03;;;7.10;99.90;;;;;;4959900;28;20531;-62
2022/03/27 05:35:15;;;;;;;17.42;4.78;;;7.10;99.90;;;;;;4977339;28;20490;-62
2022/03/27 05:37:41;;;;;;;18.45;5.80;;;7.10;99.90;;;;;;4978901;28;20742;-61
2022/03/27 05:40:10;;;;;;;20.77;6.38;;;7.10;99.90;;;;;;4973298;28;20133;-62
2022/03/27 05:42:35;;;;;;;25.48;5.47;;;7.10;99.90;;;;;;4955503;28;20495;-62
2022/03/27 05:45:05;;;;;;;26.38;6.03;;;7.00;99.90;;;;;;4970368;28;20139;-62
2022/03/27 05:47:31;;;;;;;23.38;5.75;;;7.10;99.90;;;;;;4972660;28;20047;-62
2022/03/27 05:49:57;;;;;;;21.23;5.75;;;7.10;99.90;;;;;;4970329;28;20553;-62
2022/03/27 05:52:23;;;;;;;33.65;7.53;;;7.10;99.90;;;;;;4972237;28;20047;-62
2022/03/27 05:54:50;;;;;;;26.67;5.32;;;7.10;99.90;;;;;;4991981;28;20618;-62
2022/03/27 05:57:18;;;;;;;35.80;8.50;;;7.10;99.90;;;;;;4956853;28;20391;-62
2022/03/27 05:59:46;;;;;;;25.60;6.70;;;7.20;99.90;;;;;;4972856;28;20047;-62
2022/03/27 06:02:12;;;;;;;23.13;6.07;;;7.20;99.90;;;;;;4964383;28;20503;-62
2022/03/27 06:04:38;;;;;;;23.25;7.00;;;7.30;99.90;;;;;;4972019;28;20085;-62
2022/03/27 06:07:04;;;;;;;38.83;9.85;;;7.30;99.90;;;;;;4981396;28;20069;-62
2022/03/27 06:09:30;;;;;;;39.03;9.85;;;7.30;99.90;;;;;;4953238;28;20043;-62
2022/03/27 06:11:55;;;;;;;28.38;6.55;;;7.40;99.90;;;;;;4952405;28;20050;-62
2022/03/27 06:14:21;;;;;;;32.88;8.48;;;7.40;99.90;;;;;;4951110;28;20043;-62
2022/03/27 06:16:47;;;;;;;31.40;11.18;;;7.40;99.90;;;;;;4966787;28;20398;-62
2022/03/27 06:19:12;;;;;;;44.17;13.73;;;7.50;99.90;;;;;;4970588;28;20608;-62
2022/03/27 06:21:38;;;;;;;44.05;11.57;;;7.50;99.90;;;;;;4957084;28;20051;-62
2022/03/27 06:24:04;;;;;;;38.78;9.50;;;7.60;99.90;;;;;;4972326;28;20050;-62
2022/03/27 06:26:30;;;;;;;39.22;11.50;;;7.60;99.90;;;;;;4990456;28;20136;-62
2022/03/27 06:28:55;;;;;;;51.17;9.98;;;7.70;99.90;;;;;;4989689;28;20564;-62
2022/03/27 06:31:21;;;;;;;43.20;8.25;;;7.70;99.90;;;;;;4960046;28;20082;-63
2022/03/27 06:33:46;;;;;;;50.08;9.48;;;7.80;99.90;;;;;;4952075;28;20126;-63
2022/03/27 06:36:13;;;;;;;42.10;8.52;;;7.80;99.90;;;;;;4984033;28;20061;-63
2022/03/27 06:38:39;;;;;;;48.90;10.23;;;7.90;99.90;;;;;;4967024;28;20083;-63
2022/03/27 06:41:06;;;;;;;59.75;10.15;;;7.90;99.90;;;;;;4974477;28;20522;-63
2022/03/27 06:43:32;;;;;;;51.58;10.02;;;8.00;99.90;;;;;;4956686;28;20055;-63
2022/03/27 06:45:58;;;;;;;41.33;8.23;;;8.10;99.90;;;;;;4958244;28;20372;-63
2022/03/27 06:48:24;;;;;;;43.85;10.02;;;8.10;99.90;;;;;;4969943;28;20053;-63
2022/03/27 06:50:50;;;;;;;52.95;10.73;;;8.30;99.90;;;;;;4967057;28;20368;-63
2022/03/27 06:53:20;;;;;;;44.40;8.73;;;8.30;99.90;;;;;;4951009;28;20066;-63
2022/03/27 06:55:46;;;;;;;44.47;8.98;;;8.40;99.90;;;;;;4953268;28;20039;-63
2022/03/27 06:58:12;;;;;;;42.75;8.95;;;8.40;99.90;;;;;;4968412;28;20055;-63
2022/03/27 07:03:21;;;;;;;46.35;8.80;;;8.40;99.90;;;;;;4953438;28;20075;-63
2022/03/27 07:05:48;;;;;;;48.72;9.50;;;8.50;99.90;;;;;;4984823;28;20054;-63
2022/03/27 07:08:15;;;;;;;42.22;8.27;;;8.60;99.90;;;;;;4989103;28;20045;-63
2022/03/27 07:10:42;;;;;;;45.72;9.85;;;8.60;99.90;;;;;;4970490;28;20054;-63
2022/03/27 07:13:10;;;;;;;45.92;8.63;;;8.70;99.90;;;;;;4977432;28;20042;-63
2022/03/27 07:15:40;;;;;;;55.03;11.32;;;8.90;99.90;;;;;;4989328;28;20054;-63
2022/03/27 07:18:07;;;;;;;47.65;8.95;;;8.80;99.90;;;;;;4989187;28;20162;-63
2022/03/27 07:20:36;;;;;;;35.28;8.02;;;8.90;99.90;;;;;;4965777;28;20043;-63
2022/03/27 07:23:04;;;;;;;44.08;8.65;;;9.00;99.90;;;;;;4954127;28;20101;-63
2022/03/27 07:25:33;;;;;;;56.08;10.00;;;8.90;99.90;;;;;;4964772;28;20039;-63
2022/03/27 07:27:58;;;;;;;44.40;9.50;;;8.90;99.90;;;;;;4951254;28;20395;-63
2022/03/27 07:30:24;;;;;;;39.83;10.02;;;9.20;99.90;;;;;;4949457;28;20050;-63
2022/03/27 07:32:52;;;;;;;37.17;7.95;;;9.20;99.90;;;;;;4973135;28;20053;-63
2022/03/27 07:35:18;;;;;;;52.00;10.55;;;9.30;99.90;;;;;;4985310;28;20062;-64
2022/03/27 07:37:45;;;;;;;36.10;8.88;;;9.20;99.90;;;;;;4957329;28;20061;-63
2022/03/27 07:40:12;;;;;;;42.05;8.80;;;9.30;99.90;;;;;;4970376;28;20122;-63
2022/03/27 07:42:46;;;;;;;53.97;9.75;;;9.40;99.90;;;;;;4955341;28;20126;-63
2022/03/27 07:45:13;;;;;;;37.33;8.82;;;9.40;99.90;;;;;;4949672;28;20483;-63
2022/03/27 07:47:39;;;;;;;39.95;7.93;;;9.40;99.90;;;;;;4968760;28;20090;-63
2022/03/27 07:50:07;;;;;;;37.83;8.98;;;9.50;99.90;;;;;;4963706;28;20039;-63
2022/03/27 07:52:33;;;;;;;41.50;9.85;;;9.50;99.90;;;;;;4949537;28;20578;-63
2022/03/27 07:54:59;;;;;;;49.15;9.95;;;9.60;99.90;;;;;;4951124;29;20131;-63
2022/03/27 07:57:26;;;;;;;35.53;7.75;;;9.60;99.90;;;;;;4965435;28;20071;-63
2022/03/27 07:59:51;;;;;;;40.65;9.18;;;9.70;99.90;;;;;;4966506;28;20126;-63
2022/03/27 08:02:18;;;;;;;36.28;7.32;;;9.80;99.90;;;;;;4968364;28;20675;-64
2022/03/27 08:04:44;;;;;;;42.13;11.02;;;9.80;99.90;;;;;;4961118;28;20515;-64
2022/03/27 08:07:10;;;;;;;45.28;9.77;;;9.90;99.90;;;;;;4951158;28;20066;-63
2022/03/27 08:09:36;;;;;;;36.67;9.05;;;10.10;99.90;;;;;;4959544;28;20369;-64
2022/03/27 08:12:02;;;;;;;47.55;9.27;;;10.30;99.90;;;;;;4973546;28;20504;-64
2022/03/27 08:14:31;;;;;;;50.53;8.70;;;11.20;99.90;;;;;;4969577;28;20051;-63
2022/03/27 08:16:57;;;;;;;43.55;8.80;;;11.70;99.90;;;;;;4950892;28;20403;-64
2022/03/27 08:19:23;;;;;;;49.40;10.30;;;11.90;99.90;;;;;;4948574;28;20062;-64
2022/03/27 08:21:49;;;;;;;46.25;9.35;;;12.70;99.90;;;;;;4956844;28;20036;-64
2022/03/27 08:24:14;;;;;;;38.90;9.20;;;13.00;99.90;;;;;;4950283;29;20047;-64
2022/03/27 08:26:55;;;;;;;39.63;9.45;;;13.60;99.90;;;;;;4949603;28;20035;-64
2022/03/27 08:29:21;;;;;;;34.78;8.13;;;14.00;99.90;;;;;;4955427;28;20143;-64
2022/03/27 08:31:47;;;;;;;40.78;9.10;;;14.50;99.90;;;;;;4949314;28;20564;-64
2022/03/27 08:34:13;;;;;;;38.05;9.43;;;14.90;99.90;;;;;;4974127;28;20038;-64
2022/03/27 08:36:39;;;;;;;33.97;10.52;;;15.20;99.90;;;;;;4987034;28;20450;-64
2022/03/27 08:39:04;;;;;;;30.40;8.18;;;15.60;99.90;;;;;;4949727;28;20075;-64
2022/03/27 08:41:31;;;;;;;37.65;9.07;;;16.00;99.90;;;;;;4973005;28;20046;-64
2022/03/27 08:44:00;;;;;;;38.67;9.38;;;16.10;99.90;;;;;;4962158;28;20043;-64
2022/03/27 08:46:27;;;;;;;37.00;10.55;;;16.10;99.90;;;;;;4952686;28;20545;-64
2022/03/27 08:48:54;;;;;;;38.40;9.73;;;16.30;99.90;;;;;;4985167;28;20082;-64
2022/03/27 08:51:27;;;;;;;45.60;10.88;;;16.40;99.90;;;;;;4988403;28;20093;-64
2022/03/27 08:54:07;;;;;;;31.23;7.32;;;16.70;99.90;;;;;;4951210;28;20052;-64
2022/03/27 08:56:34;;;;;;;33.80;8.57;;;16.80;99.90;;;;;;4955091;28;20039;-64
2022/03/27 08:59:08;;;;;;;40.25;9.02;;;16.80;99.90;;;;;;4971725;28;20066;-64
2022/03/27 09:01:34;;;;;;;39.50;8.73;;;17.10;99.90;;;;;;4953032;28;20808;-64
2022/03/27 09:04:00;;;;;;;32.17;8.93;;;16.90;99.90;;;;;;4961544;28;20071;-64
2022/03/27 09:06:25;;;;;;;41.00;9.73;;;17.00;99.90;;;;;;4965587;28;20070;-64
2022/03/27 09:08:53;;;;;;;27.92;8.32;;;17.20;99.90;;;;;;4954735;28;20047;-63
2022/03/27 09:11:20;;;;;;;35.40;8.15;;;17.40;99.90;;;;;;4976147;28;20101;-64
2022/03/27 09:13:48;;;;;;;31.75;8.30;;;17.10;99.90;;;;;;4963482;28;20039;-64
2022/03/27 09:16:14;;;;;;;32.50;7.97;;;17.10;99.90;;;;;;4955194;28;20113;-63
2022/03/27 09:18:44;;;;;;;30.40;8.45;;;17.40;99.90;;;;;;4968193;28;20097;-63
2022/03/27 09:21:10;;;;;;;32.08;8.57;;;17.50;99.90;;;;;;4967586;28;20658;-64
2022/03/27 09:23:36;;;;;;;29.98;7.93;;;17.40;99.90;;;;;;4951890;28;20097;-64
2022/03/27 09:26:07;;;;;;;24.00;7.47;;;17.40;99.90;;;;;;4965827;28;20042;-64
2022/03/27 09:28:40;;;;;;;22.70;7.00;;;17.30;99.90;;;;;;4956904;28;20484;-64
2022/03/27 09:31:18;;;;;;;;;;;17.40;99.90;;;;;;4953474;28;20380;-64
2022/03/27 09:33:46;;;;;;;19.65;5.88;;;17.30;99.90;;;;;;4960830;28;19980;-63
2022/03/27 09:36:18;;;;;;;24.85;8.38;;;17.30;99.90;;;;;;4962026;28;20106;-64
2022/03/27 09:39:13;;;;;;;23.65;6.05;;;17.20;98.10;;;;;;4957318;28;20081;-63
2022/03/27 09:41:51;;;;;;;20.05;6.90;;;17.50;97.60;;;;;;4991986;28;20086;-64
2022/03/27 09:44:42;;;;;;;19.50;6.55;;;17.40;98.00;;;;;;4959383;28;20044;-63
2022/03/27 09:47:13;;;;;;;19.92;6.82;;;17.30;97.60;;;;;;4973385;28;20074;-64
2022/03/27 09:49:40;;;;;;;21.25;7.20;;;17.40;98.30;;;;;;4952657;28;20089;-61
2022/03/27 09:52:14;;;;;;;22.50;6.30;;;17.40;97.90;;;;;;4961283;28;20039;-61
2022/03/27 09:54:56;;;;;;;20.25;6.28;;;17.70;97.60;;;;;;4991336;28;20083;-62
2022/03/27 09:57:24;;;;;;;20.17;6.28;;;17.60;97.70;;;;;;4989161;28;20061;-61
2022/03/27 09:59:51;;;;;;;18.98;6.55;;;17.70;97.70;;;;;;4962170;28;20059;-61
2022/03/27 10:02:29;;;;;;;19.77;5.68;;;18.00;97.30;;;;;;4967622;28;20043;-60
2022/03/27 10:05:05;;;;;;;22.13;7.57;;;18.20;95.20;;;;;;4968587;28;20125;-61
2022/03/27 10:07:34;;;;;;;20.92;6.03;;;18.00;94.00;;;;;;4966761;28;20050;-61
2022/03/27 10:10:01;;;;;;;16.65;5.53;;;18.30;95.10;;;;;;4959774;28;20435;-61
2022/03/27 10:12:32;;;;;;;21.00;6.72;;;18.20;95.00;;;;;;4960637;28;20042;-61
2022/03/27 10:15:03;;;;;;;16.20;5.13;;;18.40;95.00;;;;;;4971738;28;20069;-61
2022/03/27 10:17:32;;;;;;;12.45;5.00;;;18.10;95.10;;;;;;4967151;28;20043;-60
2022/03/27 10:20:10;;;;;;;14.43;5.75;;;17.80;93.30;;;;;;4955896;28;20051;-62
2022/03/27 10:22:40;;;;;;;25.98;6.22;;;17.90;93.20;;;;;;4952585;28;20047;-63
2022/03/27 10:25:08;;;;;;;19.40;5.53;;;17.80;94.30;;;;;;4964577;28;20043;-63
2022/03/27 10:27:38;;;;;;;14.85;5.05;;;17.70;93.00;;;;;;4984119;28;20158;-63
2022/03/27 10:30:06;;;;;;;17.27;5.03;;;17.70;92.80;;;;;;4957332;28;20046;-63
2022/03/27 10:32:34;;;;;;;17.25;5.05;;;17.60;92.30;;;;;;4974633;28;20093;-64
2022/03/27 10:35:16;;;;;;;14.32;4.32;;;17.70;93.30;;;;;;4956227;28;20055;-63
2022/03/27 10:38:04;;;;;;;17.00;4.97;;;17.80;91.10;;;;;;4957891;28;20039;-63
2022/03/27 10:40:52;;;;;;;16.48;4.70;;;17.50;92.40;;;;;;4970621;28;20121;-62
2022/03/27 10:43:51;;;;;;;17.17;4.95;;;17.40;92.60;;;;;;4970814;28;20051;-62
2022/03/27 10:46:25;;;;;;;14.70;4.35;;;17.30;91.70;;;;;;4965878;28;20054;-63
2022/03/27 10:48:53;;;;;;;9.75;3.80;;;17.30;92.10;;;;;;4956828;28;20085;-63
2022/03/27 10:51:24;;;;;;;18.98;4.90;;;17.40;90.80;;;;;;4961850;28;20035;-63
2022/03/27 10:54:07;;;;;;;15.57;3.80;;;17.40;90.40;;;;;;4986441;28;20134;-63
2022/03/27 10:56:42;;;;;;;11.80;3.45;;;17.40;90.80;;;;;;4951670;28;20125;-63
2022/03/27 10:59:15;;;;;;;14.95;4.10;;;17.60;90.60;;;;;;4959386;28;20105;-63
2022/03/27 11:01:43;;;;;;;12.57;3.60;;;17.80;90.00;;;;;;4950418;28;20050;-63
2022/03/27 11:04:10;;;;;;;16.25;4.22;;;18.00;90.20;;;;;;4977219;28;20050;-63
2022/03/27 11:06:42;;;;;;;15.68;3.95;;;18.00;90.30;;;;;;4973729;28;20039;-63
2022/03/27 11:09:09;;;;;;;12.05;3.78;;;17.90;88.50;;;;;;4962701;28;20143;-63
2022/03/27 11:11:38;;;;;;;12.05;3.90;;;18.10;89.40;;;;;;4952612;28;20051;-63
2022/03/27 11:14:08;;;;;;;12.82;4.05;;;18.00;87.50;;;;;;4969142;28;20042;-63
2022/03/27 11:16:54;;;;;;;9.73;2.95;;;18.30;83.50;;;;;;4968208;28;20054;-63
2022/03/27 11:19:43;;;;;;;12.77;3.90;;;18.30;83.70;;;;;;4968165;28;20043;-63
2022/03/27 11:22:51;;;;;;;15.27;3.65;;;18.40;83.60;;;;;;4955908;28;20087;-63
2022/03/27 11:25:37;;;;;;;11.55;3.28;;;18.60;86.10;;;;;;4959442;28;20067;-63
2022/03/27 11:28:03;;;;;;;9.68;2.90;;;18.60;84.90;;;;;;4959511;28;20051;-63
2022/03/27 11:30:30;;;;;;;15.55;3.90;;;18.60;81.30;;;;;;4959073;28;20093;-62
2022/03/27 11:33:11;;;;;;;12.05;3.85;;;18.60;83.20;;;;;;4956053;28;20057;-63
2022/03/27 11:35:37;;;;;;;10.55;3.08;;;18.60;83.40;;;;;;4957971;28;20058;-63
2022/03/27 11:38:27;;;;;;;11.35;3.72;;;19.00;84.00;;;;;;4954497;28;20442;-63
2022/03/27 11:40:55;;;;;;;13.65;3.67;;;19.10;80.10;;;;;;4966187;28;20671;-62
2022/03/27 11:43:33;;;;;;;12.30;3.47;;;19.30;82.80;;;;;;4953310;28;20039;-62
2022/03/27 11:46:00;;;;;;;10.25;2.33;;;19.70;84.00;;;;;;4964147;28;20448;-62
2022/03/27 11:48:26;;;;;;;9.70;2.45;;;19.50;76.80;;;;;;4956822;28;20056;-63
2022/03/27 11:50:55;;;;;;;8.52;2.70;;;19.60;78.10;;;;;;4960872;28;20525;-63
2022/03/27 11:53:34;;;;;;;12.27;2.78;;;19.60;79.20;;;;;;4966062;28;20086;-63
2022/03/27 11:56:11;;;;;;;10.55;4.03;;;19.60;78.50;;;;;;4966586;28;20120;-63
2022/03/27 11:58:38;;;;;;;12.02;3.95;;;19.40;77.30;;;;;;4956882;28;20047;-63
2022/03/27 12:01:09;;;;;;;10.38;3.15;;;19.80;79.10;;;;;;4964092;28;20062;-63
2022/03/27 12:03:36;;;;;;;10.20;2.70;;;19.70;77.30;;;;;;4949602;28;20051;-63
2022/03/27 12:06:07;;;;;;;7.20;2.65;;;20.00;79.00;;;;;;4961179;28;20039;-63
2022/03/27 12:08:34;;;;;;;11.07;2.65;;;20.00;80.20;;;;;;4964378;28;20047;-63
2022/03/27 12:11:05;;;;;;;15.02;3.67;;;20.20;76.90;;;;;;4965323;28;20039;-63
2022/03/27 12:13:43;;;;;;;7.05;3.00;;;20.20;76.90;;;;;;4959109;28;20047;-63
2022/03/27 12:16:15;;;;;;;8.57;2.83;;;20.20;76.90;;;;;;4960698;28;20564;-63
2022/03/27 12:18:43;;;;;;;6.00;2.83;;;20.10;79.10;;;;;;4963084;28;20043;-63
2022/03/27 12:21:14;;;;;;;15.88;3.10;;;20.30;78.50;;;;;;4964845;28;20624;-63
2022/03/27 12:23:46;;;;;;;9.77;3.45;;;20.30;77.40;;;;;;4963041;28;20088;-63
2022/03/27 12:32:04;;;;;;;10.15;3.13;;;20.50;75.10;;;;;;4989822;28;20096;-63
2022/03/27 12:34:30;;;;;;;8.52;1.77;;;20.80;77.70;;;;;;4968598;28;20098;-63
2022/03/27 12:37:18;;;;;;;12.55;3.55;;;20.90;77.40;;;;;;4959164;28;20048;-63
2022/03/27 12:39:47;;;;;;;7.47;2.78;;;21.00;75.80;;;;;;4964725;28;20045;-63
2022/03/27 12:42:49;;;;;;;8.65;2.55;;;21.10;77.90;;;;;;4966276;28;20039;-63
2022/03/27 12:45:29;;;;;;;14.45;3.30;;;21.00;74.90;;;;;;4971476;28;20651;-64
2022/03/27 12:47:57;;;;;;;8.13;2.58;;;20.90;75.00;;;;;;4972664;28;20410;-63
2022/03/27 12:50:31;;;;;;;6.72;2.22;;;20.80;73.00;;;;;;4962401;28;20149;-64
2022/03/27 12:52:59;;;;;;;9.13;3.42;;;20.70;72.80;;;;;;4960416;28;20038;-63
2022/03/27 12:55:28;;;;;;;13.10;2.70;;;20.90;72.50;;;;;;4973894;28;20047;-63
2022/03/27 12:57:59;;;;;;;9.70;2.55;;;20.80;73.70;;;;;;4963456;28;20053;-63
2022/03/27 13:00:33;;;;;;;6.72;2.10;;;21.00;73.00;;;;;;4966871;28;20106;-63